createdAt,value
2019-05-17T00:01:08.412Z,52.30
2019-05-17T00:06:06.690Z,54.40
2019-05-17T00:11:06.706Z,46.50
2019-05-17T00:16:07.225Z,56.80
2019-05-17T00:21:07.544Z,53.20
2019-05-17T00:26:07.145Z,49.80
2019-05-17T00:31:06.627Z,55.20
2019-05-17T00:36:07.030Z,58.00
2019-05-17T00:41:07.102Z,58.60
2019-05-17T00:46:06.671Z,63.40
2019-05-17T00:51:09.256Z,61.30
2019-05-17T00:56:06.629Z,73.30
2019-05-17T01:01:07.914Z,66.80
2019-05-17T01:06:06.337Z,66.20
2019-05-17T01:11:06.945Z,68.10
2019-05-17T01:16:07.140Z,63.20
2019-05-17T01:21:06.395Z,68.50
2019-05-17T01:26:09.169Z,66.90
2019-05-17T01:31:06.736Z,66.90
2019-05-17T01:36:06.822Z,73.90
2019-05-17T01:41:06.842Z,72.20
2019-05-17T01:46:06.599Z,72.10
2019-05-17T01:51:04.570Z,78.00
2019-05-17T01:56:06.353Z,69.00
2019-05-17T02:01:04.455Z,73.80
2019-05-17T02:06:07.228Z,68.80
2019-05-17T02:11:06.660Z,64.00
2019-05-17T02:16:04.352Z,67.20
2019-05-17T02:21:06.412Z,65.60
2019-05-17T02:26:06.456Z,68.40
2019-05-17T02:31:04.259Z,70.60
2019-05-17T02:36:04.094Z,61.30
2019-05-17T02:41:04.034Z,71.60
2019-05-17T02:46:04.322Z,67.80
2019-05-17T02:51:04.089Z,60.30
2019-05-17T02:56:03.869Z,67.70
2019-05-17T03:01:04.224Z,64.60
2019-05-17T03:06:03.748Z,70.00
2019-05-17T03:11:03.792Z,73.30
2019-05-17T03:16:03.975Z,75.40
2019-05-17T03:21:04.249Z,58.00
2019-05-17T03:26:04.004Z,48.20
2019-05-17T03:31:07.931Z,50.80
2019-05-17T03:36:06.049Z,47.00
2019-05-17T03:41:17.067Z,48.50
2019-05-17T03:46:04.293Z,55.10
2019-05-17T03:51:03.313Z,54.70
2019-05-17T03:56:03.295Z,53.70
2019-05-17T04:01:04.171Z,48.30
2019-05-17T04:06:03.876Z,40.50
2019-05-17T04:11:20.408Z,38.80
2019-05-17T04:16:08.733Z,32.10
2019-05-17T04:21:03.956Z,25.80
2019-05-17T04:26:04.184Z,29.40
2019-05-17T04:31:03.120Z,26.00
2019-05-17T04:36:03.027Z,25.00
2019-05-17T04:41:03.532Z,14.90
2019-05-17T04:46:03.112Z,11.90
2019-05-17T04:51:03.037Z,12.60
2019-05-17T04:56:03.225Z,14.20
2019-05-17T05:01:03.910Z,15.30
2019-05-17T05:06:03.163Z,14.60
2019-05-17T05:11:03.931Z,8.50
2019-05-17T05:16:03.153Z,11.90
2019-05-17T05:21:03.675Z,11.90
2019-05-17T05:26:03.151Z,12.60
2019-05-17T05:31:02.270Z,14.20
2019-05-17T05:36:02.460Z,16.40
2019-05-17T05:41:02.183Z,17.10
2019-05-17T05:46:03.253Z,19.70
2019-05-17T05:51:04.390Z,15.10
2019-05-17T05:56:03.240Z,12.80
2019-05-17T06:01:02.566Z,9.70
2019-05-17T06:06:02.115Z,9.60
2019-05-17T06:11:02.361Z,10.60
2019-05-17T06:16:02.624Z,10.30
2019-05-17T06:21:03.101Z,9.20
2019-05-17T06:26:03.957Z,9.10
2019-05-17T06:31:02.934Z,8.50
2019-05-17T06:36:02.831Z,9.40
2019-05-17T06:41:01.710Z,9.70
2019-05-17T06:46:01.912Z,10.00
2019-05-17T06:51:02.661Z,9.40
2019-05-17T06:56:02.641Z,8.20
2019-05-17T07:01:01.636Z,7.50
2019-05-17T07:06:02.287Z,9.50
2019-05-17T07:11:01.339Z,8.40
2019-05-17T07:16:01.236Z,8.60
2019-05-17T07:21:03.562Z,9.20
2019-05-17T07:26:01.134Z,7.90
2019-05-17T07:31:01.138Z,7.00
2019-05-17T07:36:03.348Z,7.50
2019-05-17T07:41:00.946Z,7.40
2019-05-17T07:46:01.337Z,6.80
2019-05-17T07:51:00.884Z,6.20
2019-05-17T07:56:00.762Z,6.50
2019-05-17T08:01:02.232Z,6.80
2019-05-17T08:06:02.934Z,5.70
2019-05-17T08:11:00.664Z,5.80
2019-05-17T08:16:00.988Z,5.70
2019-05-17T08:21:00.527Z,5.00
2019-05-17T08:26:00.839Z,5.50
2019-05-17T08:31:01.501Z,5.40
2019-05-17T08:36:00.543Z,4.60
2019-05-17T08:41:00.771Z,5.20
2019-05-17T08:46:02.079Z,6.40
2019-05-17T08:51:00.374Z,5.20
2019-05-17T08:56:00.919Z,5.60
2019-05-17T09:01:00.390Z,5.20
2019-05-17T09:06:02.270Z,5.00
2019-05-17T09:11:00.514Z,5.20
2019-05-17T09:16:00.562Z,4.50
2019-05-17T09:21:00.507Z,6.40
2019-05-17T09:25:59.858Z,4.70
2019-05-17T09:31:00.045Z,3.80
2019-05-17T09:36:00.859Z,3.60
2019-05-17T09:41:00.053Z,3.80
2019-05-17T09:46:01.558Z,4.60
2019-05-17T09:51:00.099Z,4.30
2019-05-17T09:56:00.482Z,3.30
2019-05-17T10:01:01.347Z,2.80
2019-05-17T10:06:09.660Z,2.90
2019-05-17T10:11:09.640Z,3.50
2019-05-17T10:16:00.437Z,2.90
2019-05-17T10:20:59.828Z,2.10
2019-05-17T10:25:59.643Z,2.50
2019-05-17T10:31:02.326Z,3.60
2019-05-17T10:36:00.559Z,3.10
2019-05-17T10:40:59.036Z,5.70
2019-05-17T10:45:59.772Z,2.10
2019-05-17T10:51:00.352Z,3.60
2019-05-17T10:56:00.699Z,1.70
2019-05-17T11:01:00.832Z,1.70
2019-05-17T11:05:59.759Z,1.80
2019-05-17T11:10:59.653Z,2.20
2019-05-17T11:15:58.667Z,2.30
2019-05-17T11:20:58.660Z,1.80
2019-05-17T11:25:58.581Z,2.70
2019-05-17T11:30:58.515Z,8.50
2019-05-17T11:35:58.474Z,17.90
2019-05-17T11:40:58.415Z,9.90
2019-05-17T11:45:58.476Z,2.40
2019-05-17T11:50:58.452Z,2.50
2019-05-17T11:55:58.342Z,3.10
2019-05-17T12:00:58.317Z,3.30
2019-05-17T12:05:58.244Z,3.60
2019-05-17T12:10:58.380Z,4.20
2019-05-17T12:15:58.171Z,2.80
2019-05-17T12:20:58.116Z,3.10
2019-05-17T12:25:58.066Z,3.70
2019-05-17T12:30:58.154Z,3.40
2019-05-17T12:35:58.024Z,3.10
2019-05-17T12:40:57.961Z,3.60
2019-05-17T12:46:01.134Z,5.90
2019-05-17T12:50:57.774Z,4.10
2019-05-17T12:55:57.734Z,4.10
2019-05-17T13:00:57.690Z,4.40
2019-05-17T13:05:57.654Z,4.30
2019-05-17T13:10:57.563Z,4.40
2019-05-17T13:15:57.585Z,5.20
2019-05-17T13:20:57.497Z,5.30
2019-05-17T13:25:57.394Z,5.50
2019-05-17T13:30:57.460Z,5.90
2019-05-17T13:35:57.324Z,6.00
2019-05-17T13:40:57.283Z,6.00
2019-05-17T13:45:57.231Z,8.40
2019-05-17T13:50:57.165Z,9.90
2019-05-17T13:55:57.413Z,9.60
2019-05-17T14:00:57.052Z,9.20
2019-05-17T14:05:57.144Z,11.10
2019-05-17T14:10:57.095Z,10.70
2019-05-17T14:15:57.014Z,11.30
2019-05-17T14:20:57.034Z,11.80
2019-05-17T14:25:56.977Z,11.30
2019-05-17T14:30:56.919Z,11.70
2019-05-17T14:35:56.842Z,11.00
2019-05-17T14:41:07.397Z,12.10
2019-05-17T14:45:57.900Z,11.50
2019-05-17T14:50:56.705Z,12.00
2019-05-17T14:55:56.670Z,12.10
2019-05-17T15:00:56.824Z,11.70
2019-05-17T15:05:56.500Z,12.60
2019-05-17T15:10:56.413Z,14.30
2019-05-17T15:15:56.433Z,15.40
2019-05-17T15:20:56.300Z,14.70
2019-05-17T15:25:56.281Z,13.70
2019-05-17T15:30:56.211Z,20.30
2019-05-17T15:35:56.302Z,17.70
2019-05-17T15:40:56.232Z,19.00
2019-05-17T15:45:56.189Z,20.50
2019-05-17T15:50:56.131Z,21.10
2019-05-17T15:55:56.076Z,24.30
2019-05-17T16:00:56.048Z,22.10
2019-05-17T16:05:55.941Z,23.90
2019-05-17T16:10:55.941Z,28.50
2019-05-17T16:15:55.838Z,26.50
2019-05-17T16:20:55.825Z,29.10
2019-05-17T16:25:55.839Z,28.60
2019-05-17T16:30:55.773Z,30.40
2019-05-17T16:35:55.684Z,29.90
2019-05-17T16:40:55.644Z,30.10
2019-05-17T16:45:55.508Z,34.00
2019-05-17T16:50:55.509Z,30.10
2019-05-17T16:55:55.381Z,33.40
2019-05-17T17:00:55.344Z,32.20
2019-05-17T17:05:55.286Z,37.40
2019-05-17T17:10:55.226Z,35.70
2019-05-17T17:15:55.168Z,34.70
2019-05-17T17:20:55.217Z,37.70
2019-05-17T17:25:55.114Z,35.40
2019-05-17T17:30:55.059Z,34.20
2019-05-17T17:35:54.977Z,36.10
2019-05-17T17:40:55.844Z,40.40
2019-05-17T17:45:54.958Z,37.20
2019-05-17T17:50:54.804Z,42.60
2019-05-17T17:55:54.734Z,46.10
2019-05-17T18:00:54.697Z,41.80
2019-05-17T18:05:54.677Z,42.80
2019-05-17T18:10:54.587Z,42.30
2019-05-17T18:15:54.570Z,41.00
2019-05-17T18:20:54.542Z,47.30
2019-05-17T18:25:54.434Z,53.10
2019-05-17T18:30:54.398Z,49.90
2019-05-17T18:36:03.410Z,47.50
2019-05-17T18:40:54.298Z,56.50
2019-05-17T18:45:54.269Z,51.70
2019-05-17T18:50:54.176Z,57.90
2019-05-17T18:55:54.121Z,58.30
2019-05-17T19:00:54.080Z,61.30
2019-05-17T19:05:54.040Z,61.80
2019-05-17T19:10:53.958Z,57.80
2019-05-17T19:15:53.913Z,67.50
2019-05-17T19:20:53.870Z,78.60
2019-05-17T19:25:53.800Z,80.00
2019-05-17T19:30:53.771Z,80.80
2019-05-17T19:35:53.698Z,85.00
2019-05-17T19:40:53.688Z,85.20
2019-05-17T19:45:53.626Z,78.90
2019-05-17T19:50:53.526Z,72.70
2019-05-17T19:55:53.486Z,80.60
2019-05-17T20:00:53.519Z,83.30
2019-05-17T20:05:53.377Z,90.90
2019-05-17T20:10:53.323Z,86.40
2019-05-17T20:15:53.271Z,100.70
2019-05-17T20:20:53.221Z,150.40
2019-05-17T20:25:53.155Z,91.70
2019-05-17T20:30:53.111Z,90.60
2019-05-17T20:35:53.046Z,111.50
2019-05-17T20:40:52.991Z,109.10
2019-05-17T20:45:53.024Z,119.50
2019-05-17T20:50:52.955Z,131.70
2019-05-17T20:55:52.874Z,130.20
2019-05-17T21:00:52.810Z,118.70
2019-05-17T21:05:52.760Z,173.60
2019-05-17T21:10:52.659Z,95.70
2019-05-17T21:15:52.679Z,309.80
2019-05-17T21:20:52.551Z,364.20
2019-05-17T21:25:52.585Z,159.70
2019-05-17T21:30:52.489Z,243.20
2019-05-17T21:35:52.415Z,119.50
2019-05-17T21:40:52.418Z,270.20
2019-05-17T21:46:03.185Z,602.40
2019-05-17T21:50:53.229Z,379.80
2019-05-17T21:55:52.156Z,469.10
2019-05-17T22:00:52.107Z,480.80
2019-05-17T22:05:52.038Z,497.30
2019-05-17T22:10:51.986Z,563.50
2019-05-17T22:15:51.915Z,518.00
2019-05-17T22:20:51.891Z,457.80
2019-05-17T22:25:51.812Z,571.40
2019-05-17T22:30:51.771Z,641.80
2019-05-17T22:35:51.703Z,426.60
2019-05-17T22:40:51.645Z,437.30
2019-05-17T22:45:51.639Z,436.60
2019-05-17T22:50:51.542Z,476.00
2019-05-17T22:55:51.488Z,412.60
2019-05-17T23:00:51.447Z,538.70
2019-05-17T23:05:51.405Z,529.30
2019-05-17T23:10:51.313Z,293.70
2019-05-17T23:15:51.383Z,481.40
2019-05-17T23:20:51.280Z,465.80
2019-05-17T23:25:51.163Z,448.10
2019-05-17T23:30:51.148Z,539.80
2019-05-17T23:35:51.115Z,337.90
2019-05-17T23:40:51.036Z,262.90
2019-05-17T23:45:50.958Z,524.40
2019-05-17T23:50:50.860Z,538.40
2019-05-17T23:55:50.933Z,502.30
